Flight Track Log - Related Links

Times and Time Zones

All times are in EDT time to prevent confusion due to time zone crossing. See the JAL740 flight status page for this flight to view local times or setup timezone preferences in your user account.

Time Position Orientation Groundspeed Altitude Reporting Facility
EDT Latitude Longitude Course Direction KTS MPH feet Rate Location/Type
Mon 10:11:00 AM 28.5640 77.0990 60° Northeast 107 123 1,100  Level FlightAware ADS-B
Mon 10:11:28 AM 28.5610 77.1120 105° East 107 123 1,100 1,161 Level FlightAware ADS-B
Mon 10:11:31 AM 28.5590 77.1220 103° East 168 193 1,700 7,091 Climbing FlightAware ADS-B
Mon 10:11:39 AM 28.5550 77.1380 106° East 168 193 2,400 3,375 Climbing FlightAware ADS-B
Mon 10:11:47 AM 28.5530 77.1440 111° Southeast 169 194 2,600 1,875 Climbing FlightAware ADS-B
Mon 10:11:55 AM 28.5520 77.1510 99° East 170 196 2,900 2,500 Climbing FlightAware ADS-B
Mon 10:11:59 AM 28.5510 77.1550 106° East 170 196 3,100 2,250 Climbing FlightAware ADS-B
Mon 10:12:03 AM 28.5500 77.1580 111° Southeast 170 196 3,200 2,250 Climbing FlightAware ADS-B
Mon 10:12:15 AM 28.5480 77.1680 103° East 171 197 3,700 2,400 Climbing FlightAware ADS-B
Mon 10:12:23 AM 28.5460 77.1760 106° East 172 198 4,000 2,500 Climbing FlightAware ADS-B
Mon 10:12:27 AM 28.5460 77.1790 90° East 173 199 4,200 2,400 Climbing FlightAware ADS-B
Mon 10:12:33 AM 28.5440 77.1850 111° Southeast 178 205 4,400 1,500 Climbing FlightAware ADS-B
Mon 10:12:43 AM 28.5420 77.1950 103° East 192 221 4,600 1,000 Climbing FlightAware ADS-B
Mon 10:12:51 AM 28.5400 77.2020 108° East 204 235 4,700 1,000 Climbing FlightAware ADS-B
Mon 10:12:55 AM 28.5390 77.2070 103° East 212 244 4,800 1,000 Climbing FlightAware ADS-B
Mon 10:13:03 AM 28.5370 77.2160 104° East 223 257 4,900 1,000 Climbing FlightAware ADS-B
Mon 10:13:07 AM 28.5360 77.2200 106° East 229 264 5,000 1,500 Climbing FlightAware ADS-B
Mon 10:13:15 AM 28.5340 77.2310 102° East 243 280 5,200 1,500 Climbing FlightAware ADS-B
Mon 10:13:23 AM 28.5310 77.2400 111° Southeast 254 292 5,400 1,875 Climbing FlightAware ADS-B
Mon 10:13:31 AM 28.5290 77.2510 102° East 262 302 5,700 2,000 Climbing FlightAware ADS-B
Mon 10:13:35 AM 28.5270 77.2570 111° Southeast 266 306 5,800 2,500 Climbing FlightAware ADS-B
Mon 10:13:43 AM 28.5250 77.2680 102° East 269 310 6,200 3,000 Climbing FlightAware ADS-B
Mon 10:13:49 AM 28.5230 77.2760 106° East 270 311 6,500 3,375 Climbing FlightAware ADS-B
Mon 10:13:59 AM 28.5190 77.2890 109° East 272 313 7,100 3,000 Climbing FlightAware ADS-B
Mon 10:14:07 AM 28.5140 77.2990 120° Southeast 275 316 7,400 2,250 Climbing FlightAware ADS-B
Mon 10:14:15 AM 28.5070 77.3070 135° Southeast 281 323 7,700 2,000 Climbing FlightAware ADS-B
Mon 10:14:19 AM 28.5040 77.3100 139° Southeast 284 327 7,800 1,500 Climbing FlightAware ADS-B
Mon 10:14:27 AM 28.4930 77.3160 154° Southeast 286 329 8,000 1,500 Climbing FlightAware ADS-B
Mon 10:14:35 AM 28.4830 77.3200 161° South 284 327 8,200 1,125 Climbing FlightAware ADS-B
Mon 10:14:43 AM 28.4730 77.3260 152° Southeast 280 322 8,300 1,000 Climbing FlightAware ADS-B
Mon 10:14:47 AM 28.4690 77.3280 156° South 279 321 8,400 1,000 Climbing FlightAware ADS-B
Mon 10:14:55 AM 28.4600 77.3340 150° Southeast 277 319 8,500 1,125 Climbing FlightAware ADS-B
Mon 10:15:03 AM 28.4520 77.3400 147° Southeast 277 319 8,700 1,034 Climbing FlightAware ADS-B
Mon 10:15:24 AM 28.4320 77.3600 139° Southeast 279 321 9,000 1,857 Climbing FlightAware ADS-B
Mon 10:15:45 AM 28.4100 77.3800 141° Southeast 281 323 10,000 2,000 Climbing FlightAware ADS-B
Mon 10:16:21 AM 28.3720 77.4180 139° Southeast 321 369 10,900 1,588 Climbing FlightAware ADS-B
Mon 10:16:53 AM 28.3350 77.4540 139° Southeast 348 400 11,800 2,206 Climbing FlightAware ADS-B
Mon 10:17:29 AM 28.2900 77.5000 138° Southeast 361 415 13,400 2,647 Climbing FlightAware ADS-B
Mon 10:18:01 AM 28.2560 77.5480 129° Southeast 369 425 14,800 2,471 Climbing FlightAware ADS-B
Mon 10:18:37 AM 28.2190 77.6040 127° Southeast 379 436 16,200 2,250 Climbing FlightAware ADS-B
Mon 10:19:13 AM 28.1810 77.6600 128° Southeast 393 452 17,500 2,167 Climbing FlightAware ADS-B
Mon 10:19:49 AM 28.1390 77.7220 128° Southeast 403 464 18,800 2,167 Climbing FlightAware ADS-B
Mon 10:20:25 AM 28.0980 77.7830 127° Southeast 409 471 20,100 2,206 Climbing FlightAware ADS-B
Mon 10:20:57 AM 28.0610 77.8370 128° Southeast 416 479 21,300 1,970 Climbing FlightAware ADS-B
Mon 10:21:32 AM 28.0200 77.8980 127° Southeast 425 489 22,300 1,800 Climbing FlightAware ADS-B
Mon 10:22:07 AM 27.9780 77.9610 127° Southeast 435 501 23,400 1,739 Climbing FlightAware ADS-B
Mon 10:22:41 AM 27.9360 78.0220 128° Southeast 443 510 24,300 1,629 Climbing FlightAware ADS-B
Mon 10:23:17 AM 27.8900 78.0890 128° Southeast 452 520 25,300 1,457 Climbing FlightAware ADS-B
Mon 10:23:51 AM 27.8580 78.1370 127° Southeast 458 527 26,000 1,352 Climbing FlightAware ADS-B
Mon 10:24:28 AM 27.8160 78.2160 121° Southeast 467 537 26,900 1,446 Climbing FlightAware ADS-B
Mon 10:25:14 AM 27.7780 78.3160 113° Southeast 465 535 28,000 1,484 Climbing FlightAware ADS-B
Mon 10:26:01 AM 27.7340 78.4320 113° Southeast 479 551 29,200 1,000 Climbing FlightAware ADS-B
Mon 10:26:44 AM 27.7040 78.5160 112° Southeast 485 558 29,500 1,200 Climbing FlightAware ADS-B
Mon 10:27:16 AM 27.6690 78.6060 114° Southeast 496 571 30,700 1,688 Climbing FlightAware ADS-B
Mon 10:27:48 AM 27.6410 78.6780 114° Southeast 500 575 31,300 514 Climbing FlightAware ADS-B
Mon 10:28:26 AM 27.6120 78.7550 113° Southeast 500 575 31,300  Level FlightAware ADS-B
Mon 10:29:02 AM 27.5850 78.8290 112° Southeast 500 575 31,300  Level FlightAware ADS-B
Mon 10:29:40 AM 27.5550 78.9060 114° Southeast 500 575 31,300  Level FlightAware ADS-B
Mon 10:30:15 AM 27.5280 78.9780 113° Southeast 500 575 31,300  Level FlightAware ADS-B
Mon 10:30:51 AM 27.5010 79.0510 113° Southeast 500 575 31,300  Level FlightAware ADS-B
Mon 10:31:27 AM 27.4730 79.1250 113° Southeast 500 575 31,300  Level FlightAware ADS-B
Mon 10:32:04 AM 27.4450 79.2000 113° Southeast 500 575 31,300  Level FlightAware ADS-B
Mon 10:32:40 AM 27.4170 79.2740 113° Southeast 500 575 31,300  Level FlightAware ADS-B
Mon 10:33:17 AM 27.3890 79.3490 113° Southeast 500 575 31,300  Level FlightAware ADS-B
Mon 10:33:54 AM 27.3600 79.4240 114° Southeast 500 575 31,300  Level FlightAware ADS-B
Mon 10:34:28 AM 27.3340 79.4940 113° Southeast 500 575 31,300  Level FlightAware ADS-B
Mon 10:35:05 AM 27.3060 79.5690 113° Southeast 500 575 31,300  Level FlightAware ADS-B
Mon 10:35:41 AM 27.2780 79.6420 113° Southeast 500 575 31,300  Level FlightAware ADS-B
Mon 10:36:17 AM 27.2500 79.7160 113° Southeast 500 575 31,300  Level FlightAware ADS-B
Mon 10:36:54 AM 27.2220 79.7910 113° Southeast 500 575 31,300  Level FlightAware ADS-B
Mon 10:37:28 AM 27.1960 79.8600 113° Southeast 500 575 31,300 267 Level FlightAware ADS-B
Mon 10:40:00 AM 27.3272 80.1701 64° Northeast  Level Estimated
Mon 10:41:00 AM 27.3788 80.2927 65° Northeast  Level Estimated
Mon 10:42:00 AM 27.4303 80.4154 65° Northeast  Level Estimated
Mon 10:43:00 AM 27.4818 80.5383 65° Northeast  Level Estimated
Mon 10:44:00 AM 27.5330 80.6612 65° Northeast  Level Estimated
Mon 10:45:00 AM 27.5842 80.7843 65° Northeast  Level Estimated
Mon 10:46:00 AM 27.6353 80.9075 65° Northeast  Level Estimated
Mon 10:47:00 AM 27.6863 81.0308 65° Northeast  Level Estimated
Mon 10:48:00 AM 27.7371 81.1542 65° Northeast  Level Estimated
Mon 10:49:00 AM 27.7879 81.2777 65° Northeast  Level Estimated
Mon 10:50:00 AM 27.8385 81.4014 65° Northeast  Level Estimated
Mon 10:51:00 AM 27.8890 81.5251 65° Northeast  Level Estimated
Mon 10:52:00 AM 27.9395 81.6490 65° Northeast  Level Estimated
Mon 10:53:00 AM 27.9898 81.7730 65° Northeast  Level Estimated
Mon 10:54:00 AM 28.0399 81.8971 65° Northeast  Level Estimated
Mon 10:55:00 AM 28.0900 82.0213 65° Northeast  Level Estimated
Mon 10:56:00 AM 28.1400 82.1456 65° Northeast  Level Estimated
Mon 10:57:00 AM 28.1899 82.2701 66° East  Level Estimated
Mon 10:58:00 AM 28.2396 82.3947 66° East  Level Estimated
Mon 10:59:00 AM 28.2892 82.5193 66° East  Level Estimated
Mon 11:00:00 AM 28.3388 82.6441 66° East  Level Estimated
Mon 11:01:00 AM 28.3881 82.7691 66° East  Level Estimated
Mon 11:02:00 AM 28.4374 82.8941 66° East  Level Estimated
Mon 11:03:00 AM 28.4866 83.0192 66° East  Level Estimated
Mon 11:04:00 AM 28.5357 83.1445 66° East  Level Estimated
Mon 11:05:00 AM 28.5846 83.2699 66° East  Level Estimated
Mon 11:05:46 AM 25.8380 84.2420 66° East 488 562 39,000  Level FlightAware ADS-B
Mon 11:06:20 AM 25.8190 84.3120 107° East 487 560 39,000  Level FlightAware ADS-B
Mon 11:07:00 AM 25.7900 84.4100 108° East 488 562 39,000  Level FlightAware ADS-B
Mon 11:07:36 AM 25.7700 84.4840 107° East 488 562 39,000  Level FlightAware ADS-B
Mon 11:08:13 AM 25.7490 84.5590 107° East 488 562 39,000  Level FlightAware ADS-B
Mon 11:08:49 AM 25.7290 84.6320 107° East 488 562 39,000  Level FlightAware ADS-B
Mon 11:09:25 AM 25.7090 84.7060 107° East 488 562 39,000  Level FlightAware ADS-B
Mon 11:10:02 AM 25.6880 84.7810 107° East 488 562 39,000  Level FlightAware ADS-B
Mon 11:10:36 AM 25.6690 84.8500 107° East 488 562 39,000  Level FlightAware ADS-B
Mon 11:11:28 AM 25.6400 84.9560 107° East 488 562 39,000  Level FlightAware ADS-B
Mon 11:12:04 AM 25.6200 85.0290 107° East 488 562 39,000  Level FlightAware ADS-B
Mon 11:12:40 AM 25.5990 85.1030 107° East 488 562 39,000  Level FlightAware ADS-B
Mon 11:13:17 AM 25.5790 85.1780 106° East 488 562 39,000  Level FlightAware ADS-B
Mon 11:13:53 AM 25.5580 85.2510 108° East 488 562 39,000  Level FlightAware ADS-B
Mon 11:14:30 AM 25.5380 85.3260 106° East 488 562 39,000  Level FlightAware ADS-B
Mon 11:15:06 AM 25.5180 85.4000 107° East 488 562 39,000  Level FlightAware ADS-B
Mon 11:15:42 AM 25.4970 85.4730 108° East 488 562 39,000  Level FlightAware ADS-B
Mon 11:16:19 AM 25.4770 85.5480 106° East 488 562 39,000  Level FlightAware ADS-B
Mon 11:17:54 AM 25.4310 85.9960 64° Northeast 485 558 39,000  Level FlightAware ADS-B
Mon 11:18:00 AM 25.5665 85.7497 64° Northeast  Level Estimated
Mon 11:18:41 AM 25.4120 86.0990 102° East 485 558 39,000  Level FlightAware ADS-B
Mon 11:19:21 AM 25.3930 86.2050 101° East 483 556 39,000  Level FlightAware ADS-B
Mon 11:19:56 AM 25.3780 86.2900 101° East 483 556 39,000  Level FlightAware ADS-B
Mon 11:20:29 AM 25.3630 86.3700 102° East 483 556 39,000  Level FlightAware ADS-B
Mon 11:21:06 AM 25.3410 86.4570 106° East 483 556 39,000  Level FlightAware ADS-B
Mon 11:21:53 AM 25.2980 86.5640 114° Southeast 483 556 39,000  Level FlightAware ADS-B
Mon 11:22:29 AM 25.2640 86.6460 115° Southeast 483 556 39,000  Level FlightAware ADS-B
Mon 11:23:04 AM 25.2320 86.7240 114° Southeast 484 557 39,000  Level FlightAware ADS-B
Mon 11:23:33 AM 25.2050 86.7880 115° Southeast 485 558 39,000  Level FlightAware ADS-B
Mon 11:24:14 AM 25.1660 86.8810 115° Southeast 485 558 39,000  Level FlightAware ADS-B
Mon 11:24:47 AM 25.1360 86.9530 115° Southeast 485 558 39,000  Level FlightAware ADS-B
Mon 11:25:24 AM 25.1010 87.0370 115° Southeast 485 558 39,000  Level FlightAware ADS-B
Mon 11:26:00 AM 25.0670 87.1180 115° Southeast 483 556 39,000  Level FlightAware ADS-B
Mon 11:26:31 AM 25.0390 87.1850 115° Southeast 483 556 39,000  Level FlightAware ADS-B
Mon 11:27:14 AM 24.9980 87.2830 115° Southeast 484 557 39,000  Level FlightAware ADS-B
Mon 11:27:51 AM 24.9650 87.3620 115° Southeast 486 559 39,000  Level FlightAware ADS-B
Mon 11:28:27 AM 24.9290 87.4470 115° Southeast 488 562 39,000  Level FlightAware ADS-B
Mon 11:29:00 AM 24.8970 87.5210 115° Southeast 487 560 39,000  Level FlightAware ADS-B
Mon 11:29:35 AM 24.8640 87.6000 115° Southeast 486 559 39,000  Level FlightAware ADS-B
Mon 11:30:12 AM 24.8300 87.6790 115° Southeast 484 557 39,000  Level FlightAware ADS-B
Mon 11:30:48 AM 24.7950 87.7620 115° Southeast 485 558 39,000  Level FlightAware ADS-B
Mon 11:31:21 AM 24.7630 87.8380 115° Southeast 485 558 39,000  Level FlightAware ADS-B
Mon 11:31:54 AM 24.7330 87.9110 114° Southeast 486 559 39,000  Level FlightAware ADS-B
Mon 11:32:31 AM 24.6990 87.9940 114° Southeast 486 559 39,000  Level FlightAware ADS-B
Mon 11:33:05 AM 24.6680 88.0710 114° Southeast 485 558 39,000  Level FlightAware ADS-B
Mon 11:33:41 AM 24.6340 88.1520 115° Southeast 485 558 39,000  Level FlightAware ADS-B
Mon 11:34:17 AM 24.6020 88.2280 115° Southeast 485 558 39,000  Level FlightAware ADS-B
Mon 11:34:52 AM 24.5670 88.3110 115° Southeast 485 558 39,000  Level FlightAware ADS-B
Mon 11:35:25 AM 24.5370 88.3830 115° Southeast 485 558 39,000  Level FlightAware ADS-B
Mon 11:36:01 AM 24.5020 88.4660 115° Southeast 486 559 39,000  Level FlightAware ADS-B
Mon 11:36:36 AM 24.4710 88.5410 114° Southeast 486 559 39,000  Level FlightAware ADS-B
Mon 11:37:09 AM 24.4420 88.6160 113° Southeast 486 559 39,000  Level FlightAware ADS-B
Mon 11:37:45 AM 24.4220 88.7040 104° East 486 559 39,000  Level FlightAware ADS-B
Mon 11:38:20 AM 24.4050 88.7880 103° East 487 560 39,000  Level FlightAware ADS-B
Mon 11:38:57 AM 24.3870 88.8760 103° East 487 560 39,000  Level FlightAware ADS-B
Mon 11:39:32 AM 24.3700 88.9620 102° East 488 562 39,000  Level FlightAware ADS-B
Mon 11:40:08 AM 24.3520 89.0480 103° East 488 562 39,000  Level FlightAware ADS-B
Mon 11:40:41 AM 24.3360 89.1270 103° East 487 560 39,000  Level FlightAware ADS-B
Mon 11:41:11 AM 24.3210 89.2000 103° East 486 559 39,000  Level FlightAware ADS-B
Mon 11:41:51 AM 24.3020 89.2960 102° East 487 560 39,000  Level FlightAware ADS-B
Mon 11:42:27 AM 24.2840 89.3830 103° East 488 562 39,000  Level FlightAware ADS-B
Mon 11:42:59 AM 24.2680 89.4600 103° East 488 562 39,000  Level FlightAware ADS-B
Mon 11:43:39 AM 24.2510 89.5460 102° East 488 562 39,000  Level FlightAware ADS-B
Mon 11:44:16 AM 24.2360 89.6220 102° East 488 562 39,000  Level FlightAware ADS-B
Mon 11:44:50 AM 24.2230 89.6920 101° East 488 562 39,000  Level FlightAware ADS-B
Mon 11:45:32 AM 24.1930 89.8250 104° East 490 564 39,000  Level FlightAware ADS-B
Mon 11:46:04 AM 24.1750 89.9080 103° East 490 564 39,000  Level FlightAware ADS-B
Mon 11:46:38 AM 24.1580 89.9900 103° East 491 565 39,000  Level FlightAware ADS-B
Mon 11:47:28 AM 24.1370 90.0980 102° East 491 565 39,000  Level FlightAware ADS-B
Mon 11:48:03 AM 24.1220 90.1700 103° East 491 565 39,000  Level FlightAware ADS-B
Mon 11:48:40 AM 24.1080 90.2470 101° East 491 565 39,000  Level FlightAware ADS-B
Mon 11:49:17 AM 24.0930 90.3240 102° East 491 565 39,000  Level FlightAware ADS-B
Mon 11:49:53 AM 24.0780 90.3980 103° East 491 565 39,000  Level FlightAware ADS-B
Mon 11:50:29 AM 24.0640 90.4730 102° East 491 565 39,000  Level FlightAware ADS-B
Mon 11:51:06 AM 24.0490 90.5490 102° East 491 565 39,000  Level FlightAware ADS-B
Mon 11:51:42 AM 24.0350 90.6230 102° East 491 565 39,000  Level FlightAware ADS-B
Mon 11:52:07 AM 24.0240 90.6750 103° East 491 565 39,000  Level FlightAware ADS-B
Mon 11:52:43 AM 24.0100 90.7500 102° East 491 565 39,000  Level FlightAware ADS-B
Mon 11:53:19 AM 23.9960 90.8240 102° East 491 565 39,000  Level FlightAware ADS-B
Mon 11:53:56 AM 23.9810 90.9010 102° East 491 565 39,000  Level FlightAware ADS-B
Mon 11:54:33 AM 23.9660 90.9770 102° East 491 565 39,000  Level FlightAware ADS-B
Mon 11:55:09 AM 23.9510 91.0510 102° East 491 565 39,000  Level FlightAware ADS-B
Mon 11:55:45 AM 23.9370 91.1260 102° East 491 565 39,000  Level FlightAware ADS-B
Mon 11:56:21 AM 23.9220 91.2000 102° East 491 565 39,000 11 Level FlightAware ADS-B
Mon 11:58:00 AM 24.0136 91.3932 63° Northeast  Level Estimated
Mon 11:59:00 AM 24.0690 91.5104 63° Northeast  Level Estimated
Mon 12:00:00 PM 24.1243 91.6276 63° Northeast  Level Estimated
Mon 12:01:00 PM 24.1795 91.7450 63° Northeast  Level Estimated
Mon 12:02:00 PM 24.2346 91.8625 63° Northeast  Level Estimated
Mon 12:03:00 PM 24.2896 91.9801 63° Northeast  Level Estimated
Mon 12:04:00 PM 24.3446 92.0979 63° Northeast  Level Estimated
Mon 12:05:00 PM 24.3994 92.2157 63° Northeast  Level Estimated
Mon 12:06:00 PM 24.4542 92.3336 63° Northeast  Level Estimated
Mon 12:07:00 PM 24.5089 92.4516 63° Northeast  Level Estimated
Mon 12:08:00 PM 24.5634 92.5697 63° Northeast  Level Estimated
Mon 12:09:00 PM 24.6179 92.6879 63° Northeast  Level Estimated
Mon 12:10:00 PM 24.6723 92.8062 63° Northeast  Level Estimated
Mon 12:11:00 PM 24.7266 92.9247 63° Northeast  Level Estimated
Mon 12:12:00 PM 24.7808 93.0432 63° Northeast  Level Estimated
Mon 12:13:00 PM 24.8349 93.1618 63° Northeast  Level Estimated
Mon 12:14:00 PM 24.8889 93.2805 63° Northeast  Level Estimated
Mon 12:15:00 PM 24.9429 93.3994 63° Northeast  Level Estimated
Mon 12:16:00 PM 24.9967 93.5183 63° Northeast  Level Estimated
Mon 12:17:00 PM 25.0504 93.6374 63° Northeast  Level Estimated
Mon 12:18:00 PM 25.1040 93.7565 64° Northeast  Level Estimated
Mon 12:19:00 PM 25.1576 93.8758 64° Northeast  Level Estimated
Mon 12:20:00 PM 25.2110 93.9951 64° Northeast  Level Estimated
Mon 12:21:00 PM 25.2644 94.1146 64° Northeast  Level Estimated
Mon 12:22:00 PM 25.3176 94.2342 64° Northeast  Level Estimated
Mon 12:23:00 PM 25.3708 94.3538 64° Northeast  Level Estimated
Mon 12:24:00 PM 25.4239 94.4736 64° Northeast  Level Estimated
Mon 12:25:00 PM 25.4768 94.5935 64° Northeast  Level Estimated
Mon 12:26:00 PM 25.5297 94.7135 64° Northeast  Level Estimated
Mon 12:27:00 PM 25.5825 94.8336 64° Northeast  Level Estimated
Mon 12:28:00 PM 25.6351 94.9538 64° Northeast  Level Estimated
Mon 12:29:00 PM 25.6877 95.0741 64° Northeast  Level Estimated
Mon 12:30:00 PM 25.7402 95.1945 64° Northeast  Level Estimated
Mon 12:31:00 PM 25.7925 95.3150 64° Northeast  Level Estimated
Mon 12:32:00 PM 25.8448 95.4357 64° Northeast  Level Estimated
Mon 12:33:00 PM 25.8970 95.5564 64° Northeast  Level Estimated
Mon 12:34:00 PM 25.9491 95.6772 64° Northeast  Level Estimated
Mon 12:35:00 PM 26.0011 95.7982 64° Northeast  Level Estimated
Mon 12:36:00 PM 26.0529 95.9192 64° Northeast  Level Estimated
Mon 12:37:00 PM 26.1047 96.0404 65° Northeast  Level Estimated
Mon 12:38:00 PM 26.1564 96.1617 65° Northeast  Level Estimated
Mon 12:39:00 PM 26.2080 96.2830 65° Northeast  Level Estimated
Mon 12:40:00 PM 26.2594 96.4045 65° Northeast  Level Estimated
Mon 12:41:00 PM 26.3108 96.5261 65° Northeast  Level Estimated
Mon 12:42:00 PM 26.3620 96.6478 65° Northeast  Level Estimated
Mon 12:43:00 PM 26.4132 96.7696 65° Northeast  Level Estimated
Mon 12:44:00 PM 26.4643 96.8915 65° Northeast  Level Estimated
Mon 12:45:00 PM 26.5152 97.0135 65° Northeast  Level Estimated
Mon 12:46:00 PM 26.5661 97.1357 65° Northeast  Level Estimated
Mon 12:47:00 PM 26.6168 97.2579 65° Northeast  Level Estimated
Mon 12:48:00 PM 26.6675 97.3803 65° Northeast  Level Estimated
Mon 12:49:00 PM 26.7180 97.5027 65° Northeast  Level Estimated
Mon 12:50:00 PM 26.7684 97.6253 65° Northeast  Level Estimated
Mon 12:51:00 PM 26.8188 97.7480 65° Northeast  Level Estimated
Mon 12:52:00 PM 26.8690 97.8707 65° Northeast  Level Estimated
Mon 12:53:00 PM 26.9191 97.9936 65° Northeast  Level Estimated
Mon 12:54:00 PM 26.9691 98.1166 65° Northeast  Level Estimated
Mon 12:55:00 PM 27.0190 98.2397 66° East  Level Estimated
Mon 12:56:00 PM 27.0688 98.3630 66° East  Level Estimated
Mon 12:57:00 PM 27.1185 98.4863 66° East  Level Estimated
Mon 12:58:00 PM 27.1681 98.6097 66° East  Level Estimated
Mon 12:59:00 PM 27.2175 98.7333 66° East  Level Estimated
Mon 01:00:00 PM 27.2669 98.8569 66° East  Level Estimated
Mon 01:01:00 PM 27.3161 98.9807 66° East  Level Estimated
Mon 01:02:00 PM 27.3653 99.1046 66° East  Level Estimated
Mon 01:03:00 PM 27.4143 99.2286 66° East  Level Estimated
Mon 01:04:00 PM 27.4632 99.3527 66° East  Level Estimated
Mon 01:05:00 PM 27.5120 99.4769 66° East  Level Estimated
Mon 01:06:00 PM 27.5607 99.6012 66° East  Level Estimated
Mon 01:07:00 PM 27.6093 99.7256 66° East  Level Estimated
Mon 01:08:00 PM 27.6578 99.8502 66° East  Level Estimated
Mon 01:09:00 PM 27.7062 99.9748 66° East  Level Estimated
Mon 01:10:00 PM 27.7544 100.0996 66° East  Level Estimated
Mon 01:11:00 PM 27.8026 100.2245 66° East  Level Estimated
Mon 01:12:00 PM 27.8506 100.3494 66° East  Level Estimated
Mon 01:13:00 PM 27.8985 100.4745 67° East  Level Estimated
Mon 01:14:00 PM 27.9464 100.5997 67° East  Level Estimated
Mon 01:15:00 PM 27.9940 100.7250 67° East  Level Estimated
Mon 01:16:00 PM 28.0416 100.8505 67° East  Level Estimated
Mon 01:17:00 PM 28.0891 100.9760 67° East  Level Estimated
Mon 01:18:00 PM 28.1364 101.1016 67° East  Level Estimated
Mon 01:19:00 PM 28.1837 101.2274 67° East  Level Estimated
Mon 01:20:00 PM 28.2308 101.3532 67° East  Level Estimated
Mon 01:21:00 PM 28.2778 101.4792 67° East  Level Estimated
Mon 01:22:00 PM 28.3247 101.6053 67° East  Level Estimated
Mon 01:23:00 PM 28.3715 101.7315 67° East  Level Estimated
Mon 01:24:00 PM 28.4181 101.8578 67° East  Level Estimated
Mon 01:25:00 PM 28.4647 101.9843 67° East  Level Estimated
Mon 01:26:00 PM 28.5111 102.1108 67° East  Level Estimated
Mon 01:27:00 PM 28.5574 102.2374 67° East  Level Estimated
Mon 01:28:00 PM 28.6036 102.3642 67° East  Level Estimated
Mon 01:29:00 PM 28.6497 102.4911 67° East  Level Estimated
Mon 01:30:00 PM 28.6957 102.6180 68° East  Level Estimated
Mon 01:31:00 PM 28.7415 102.7451 68° East  Level Estimated
Mon 01:32:00 PM 28.7872 102.8723 68° East  Level Estimated
Mon 01:33:00 PM 28.8328 102.9996 68° East  Level Estimated
Mon 01:34:00 PM 28.8783 103.1271 68° East  Level Estimated
Mon 01:35:00 PM 28.9237 103.2546 68° East  Level Estimated
Mon 01:36:00 PM 28.9689 103.3822 68° East  Level Estimated
Mon 01:37:00 PM 29.0140 103.5100 68° East  Level Estimated
Mon 01:38:00 PM 29.0590 103.6379 68° East  Level Estimated
Mon 01:39:00 PM 29.1039 103.7658 68° East  Level Estimated
Mon 01:40:00 PM 29.1486 103.8939 68° East  Level Estimated
Mon 01:41:00 PM 29.1933 104.0221 68° East  Level Estimated
Mon 01:42:00 PM 29.2378 104.1505 68° East  Level Estimated
Mon 01:43:00 PM 29.2822 104.2789 68° East  Level Estimated
Mon 01:44:00 PM 29.3264 104.4074 68° East  Level Estimated
Mon 01:45:00 PM 29.3706 104.5361 68° East  Level Estimated
Mon 01:46:00 PM 29.4146 104.6648 69° East  Level Estimated
Mon 01:47:00 PM 29.4585 104.7937 69° East  Level Estimated
Mon 01:48:00 PM 29.5023 104.9227 69° East  Level Estimated
Mon 01:49:00 PM 29.5459 105.0518 69° East  Level Estimated
Mon 01:50:00 PM 29.5894 105.1810 69° East  Level Estimated
Mon 01:51:00 PM 29.6328 105.3103 69° East  Level Estimated
Mon 01:52:00 PM 29.6761 105.4398 69° East  Level Estimated
Mon 01:53:00 PM 29.7192 105.5693 69° East  Level Estimated
Mon 01:54:00 PM 29.7622 105.6989 69° East  Level Estimated
Mon 01:55:00 PM 29.8051 105.8287 69° East  Level Estimated
Mon 01:56:00 PM 29.8479 105.9586 69° East  Level Estimated
Mon 01:57:00 PM 29.8905 106.0886 69° East  Level Estimated
Mon 01:58:00 PM 29.9330 106.2187 69° East  Level Estimated
Mon 01:59:00 PM 29.9754 106.3489 69° East  Level Estimated
Mon 02:00:00 PM 30.0177 106.4792 69° East  Level Estimated
Mon 02:01:00 PM 30.0598 106.6096 70° East  Level Estimated
Mon 02:02:00 PM 30.1018 106.7402 70° East  Level Estimated
Mon 02:03:00 PM 30.1437 106.8708 70° East  Level Estimated
Mon 02:04:00 PM 30.1854 107.0016 70° East  Level Estimated
Mon 02:05:00 PM 30.2270 107.1324 70° East  Level Estimated
Mon 02:06:00 PM 30.2685 107.2634 70° East  Level Estimated
Mon 02:07:00 PM 30.3098 107.3945 70° East  Level Estimated
Mon 02:08:00 PM 30.3511 107.5257 70° East  Level Estimated
Mon 02:09:00 PM 30.3921 107.6570 70° East  Level Estimated
Mon 02:10:00 PM 30.4331 107.7885 70° East  Level Estimated
Mon 02:11:00 PM 30.4739 107.9200 70° East  Level Estimated
Mon 02:12:00 PM 30.5146 108.0517 70° East  Level Estimated
Mon 02:13:00 PM 30.5552 108.1834 70° East  Level Estimated
Mon 02:14:00 PM 30.5956 108.3153 70° East  Level Estimated
Mon 02:15:00 PM 30.6359 108.4473 70° East  Level Estimated
Mon 02:16:00 PM 30.6760 108.5794 71° East  Level Estimated
Mon 02:17:00 PM 30.7160 108.7115 71° East  Level Estimated
Mon 02:18:00 PM 30.7559 108.8438 71° East  Level Estimated
Mon 02:19:00 PM 30.7957 108.9763 71° East  Level Estimated
Mon 02:20:00 PM 30.8353 109.1088 71° East  Level Estimated
Mon 02:21:00 PM 30.8748 109.2414 71° East  Level Estimated
Mon 02:22:00 PM 30.9142 109.3742 71° East  Level Estimated
Mon 02:23:00 PM 30.9534 109.5070 71° East  Level Estimated
Mon 02:24:00 PM 30.9925 109.6400 71° East  Level Estimated
Mon 02:25:00 PM 31.0314 109.7730 71° East  Level Estimated
Mon 02:26:00 PM 31.0702 109.9062 71° East  Level Estimated
Mon 02:27:00 PM 31.1089 110.0395 71° East  Level Estimated
Mon 02:28:00 PM 31.1474 110.1729 71° East  Level Estimated
Mon 02:29:00 PM 31.1858 110.3064 71° East  Level Estimated
Mon 02:30:00 PM 31.2241 110.4400 71° East  Level Estimated
Mon 02:31:00 PM 31.2622 110.5737 72° East  Level Estimated
Mon 02:32:00 PM 31.3002 110.7076 72° East  Level Estimated
Mon 02:33:00 PM 31.3380 110.8415 72° East  Level Estimated
Mon 02:34:00 PM 31.3757 110.9755 72° East  Level Estimated
Mon 02:35:00 PM 31.4133 111.1097 72° East  Level Estimated
Mon 02:36:00 PM 31.4507 111.2439 72° East  Level Estimated
Mon 02:37:00 PM 31.4880 111.3783 72° East  Level Estimated
Mon 02:38:00 PM 31.5251 111.5128 72° East  Level Estimated
Mon 02:39:00 PM 31.5621 111.6473 72° East  Level Estimated
Mon 02:40:00 PM 31.5990 111.7820 72° East  Level Estimated
Mon 02:41:00 PM 31.6357 111.9168 72° East  Level Estimated
Mon 02:42:00 PM 31.6723 112.0517 72° East  Level Estimated
Mon 02:43:00 PM 31.7087 112.1867 72° East  Level Estimated
Mon 02:44:00 PM 31.7450 112.3218 72° East  Level Estimated
Mon 02:45:00 PM 31.7811 112.4570 73° East  Level Estimated
Mon 02:46:00 PM 31.8171 112.5923 73° East  Level Estimated
Mon 02:47:00 PM 31.8530 112.7278 73° East  Level Estimated
Mon 02:48:00 PM 31.8887 112.8633 73° East  Level Estimated
Mon 02:49:00 PM 31.9243 112.9989 73° East  Level Estimated
Mon 02:50:00 PM 31.9597 113.1347 73° East  Level Estimated
Mon 02:51:00 PM 31.9950 113.2705 73° East  Level Estimated
Mon 02:52:00 PM 32.0302 113.4065 73° East  Level Estimated
Mon 02:53:00 PM 32.0652 113.5425 73° East  Level Estimated
Mon 02:54:00 PM 32.1000 113.6787 73° East  Level Estimated
Mon 02:55:00 PM 32.1347 113.8150 73° East  Level Estimated
Mon 02:56:00 PM 32.1693 113.9513 73° East  Level Estimated
Mon 02:57:00 PM 32.2037 114.0878 73° East  Level Estimated
Mon 02:58:00 PM 32.2380 114.2244 73° East  Level Estimated
Mon 02:59:00 PM 32.2721 114.3610 74° East  Level Estimated
Mon 03:00:00 PM 32.3060 114.4978 74° East  Level Estimated
Mon 03:01:00 PM 32.3399 114.6347 74° East  Level Estimated
Mon 03:02:00 PM 32.3736 114.7717 74° East  Level Estimated
Mon 03:03:00 PM 32.4071 114.9088 74° East  Level Estimated
Mon 03:04:00 PM 32.4405 115.0459 74° East  Level Estimated
Mon 03:05:00 PM 32.4737 115.1832 74° East  Level Estimated
Mon 03:06:00 PM 32.5068 115.3206 74° East  Level Estimated
Mon 03:06:38 PM 31.6520 118.5960 74° East 525 604 41,100  Level FlightAware ADS-B
Mon 03:07:00 PM 32.5397 115.4581 74° East  Level Estimated
Mon 03:07:02 PM 31.6500 118.6540 92° East 525 604 41,100  Level FlightAware ADS-B
Mon 03:07:50 PM 31.6450 118.7700 93° East 525 604 41,100  Level FlightAware ADS-B
Mon 03:08:49 PM 31.6220 118.9850 97° East 527 606 41,100  Level FlightAware ADS-B
Mon 03:09:25 PM 31.6150 119.0810 95° East 528 608 41,100  Level FlightAware ADS-B
Mon 03:10:06 PM 31.6090 119.1990 93° East 528 608 41,100  Level FlightAware ADS-B
Mon 03:10:42 PM 31.6050 119.2860 93° East 528 608 41,100  Level FlightAware ADS-B
Mon 03:11:26 PM 31.6000 119.3930 93° East 528 608 41,100  Level FlightAware ADS-B
Mon 03:12:10 PM 31.5970 119.5320 91° East 529 609 41,100  Level FlightAware ADS-B
Mon 03:12:50 PM 31.5870 119.6660 95° East 529 609 41,100  Level FlightAware ADS-B
Mon 03:13:30 PM 31.5860 119.7640 91° East 529 609 41,100  Level FlightAware ADS-B
Mon 03:14:18 PM 31.5780 119.9020 94° East 528 608 41,100  Level FlightAware ADS-B
Mon 03:14:54 PM 31.5750 119.9890 92° East 528 608 41,100  Level FlightAware ADS-B
Mon 03:15:30 PM 31.5720 120.0770 92° East 528 608 41,100  Level FlightAware ADS-B
Mon 03:16:06 PM 31.5700 120.1650 92° East 528 608 41,100  Level FlightAware ADS-B
Mon 03:16:39 PM 31.5510 120.3290 98° East 527 606 41,100  Level FlightAware ADS-B
Mon 03:17:04 PM 31.5340 120.3970 106° East 527 606 41,100  Level FlightAware ADS-B
Mon 03:17:39 PM 31.5050 120.4930 109° East 528 608 41,100  Level FlightAware ADS-B
Mon 03:18:21 PM 31.4740 120.5940 110° East 528 608 41,100  Level FlightAware ADS-B
Mon 03:18:54 PM 31.4450 120.6910 109° East 529 609 41,100  Level FlightAware ADS-B
Mon 03:19:29 PM 31.4160 120.7860 110° East 529 609 41,100  Level FlightAware ADS-B
Mon 03:20:04 PM 31.3870 120.8800 110° East 528 608 41,100  Level FlightAware ADS-B
Mon 03:20:39 PM 31.3580 120.9770 109° East 528 608 41,100  Level FlightAware ADS-B
Mon 03:21:14 PM 31.3290 121.0720 110° East 528 608 41,100  Level FlightAware ADS-B
Mon 03:21:54 PM 31.2950 121.1800 110° East 528 608 41,100  Level FlightAware ADS-B
Mon 03:22:25 PM 31.2570 121.2490 123° Southeast 520 598 41,100  Level FlightAware ADS-B
Mon 03:22:29 PM 31.2480 121.2580 139° Southeast 520 598 41,100  Level FlightAware ADS-B
Mon 03:22:44 PM 31.2170 121.2830 145° Southeast 514 592 41,100  Level FlightAware ADS-B
Mon 03:23:19 PM 31.1420 121.3250 154° Southeast 509 586 41,100  Level FlightAware ADS-B
Mon 03:23:39 PM 31.1080 121.3630 136° Southeast 516 594 41,100  Level FlightAware ADS-B
Mon 03:23:55 PM 31.0880 121.3990 123° Southeast 521 600 41,100  Level FlightAware ADS-B
Mon 03:24:19 PM 31.0730 121.4620 106° East 525 604 41,100  Level FlightAware ADS-B
Mon 03:25:06 PM 31.0550 121.6010 99° East 528 608 41,100  Level FlightAware ADS-B
Mon 03:25:49 PM 31.0400 121.7110 99° East 527 606 41,100  Level FlightAware ADS-B
Mon 03:26:29 PM 31.0240 121.8310 99° East 527 606 41,100  Level FlightAware ADS-B
Mon 03:27:09 PM 31.0080 121.9460 99° East 527 606 41,100  Level FlightAware ADS-B
Mon 03:27:44 PM 30.9950 122.0410 99° East 528 608 41,100  Level FlightAware ADS-B
Mon 03:28:25 PM 30.9790 122.1540 99° East 528 608 41,100  Level FlightAware ADS-B
Mon 03:28:54 PM 30.9700 122.2370 97° East 527 606 41,100  Level FlightAware ADS-B
Mon 03:29:50 PM 30.9650 122.3840 92° East 528 608 41,100  Level FlightAware ADS-B
Mon 03:30:34 PM 30.9670 122.5090 89° East 528 608 41,100  Level FlightAware ADS-B
Mon 03:31:10 PM 30.9670 122.6030 90° East 527 606 41,100 -783 Level FlightAware ADS-B
Mon 03:32:06 PM 30.9670 122.7680 90° East 527 606 39,900 -783 Descending FlightAware ADS-B
Mon 03:32:42 PM 30.9670 122.8550 90° East 527 606 39,900 -761 Level FlightAware ADS-B
Mon 03:33:17 PM 30.9700 122.9840 88° East 525 604 39,000 -635 Descending FlightAware ADS-B
Mon 03:34:07 PM 30.9960 123.1020 76° East 523 602 39,000  Level FlightAware ADS-B
Mon 03:34:41 PM 31.0170 123.1800 73° East 523 602 39,000  Level FlightAware ADS-B
Mon 03:35:17 PM 31.0390 123.2620 73° East 523 602 39,000  Level FlightAware ADS-B
Mon 03:35:53 PM 31.0600 123.3450 74° East 523 602 39,000  Level FlightAware ADS-B
Mon 03:36:29 PM 31.0820 123.4280 73° East 523 602 39,000  Level FlightAware ADS-B
Mon 03:37:07 PM 31.1050 123.5150 73° East 523 602 39,000  Level FlightAware ADS-B
Mon 03:37:43 PM 31.1260 123.5980 74° East 523 602 39,000  Level FlightAware ADS-B
Mon 03:38:19 PM 31.1480 123.6800 73° East 523 602 39,000  Level FlightAware ADS-B
Mon 03:38:56 PM 31.1700 123.7650 73° East 523 602 39,000  Level FlightAware ADS-B
Mon 03:39:33 PM 31.1920 123.8500 73° East 523 602 39,000  Level FlightAware ADS-B
Mon 03:40:09 PM 31.2140 123.9330 73° East 523 602 39,000  Level FlightAware ADS-B
Mon 03:40:46 PM 31.2360 124.0180 73° East 523 602 39,000  Level FlightAware ADS-B
Mon 03:41:23 PM 31.2590 124.1030 72° East 523 602 39,000  Level FlightAware ADS-B
Mon 03:42:00 PM 31.2810 124.1890 73° East 523 602 39,000  Level FlightAware ADS-B
Mon 03:42:38 PM 31.3040 124.2760 73° East 523 602 39,000  Level FlightAware ADS-B
Mon 03:43:14 PM 31.3250 124.3590 73° East 523 602 39,000  Level FlightAware ADS-B
Mon 03:45:00 PM 31.4070 124.5891 67° East  Level Estimated
Mon 03:46:00 PM 31.4533 124.7195 67° East  Level Estimated
Mon 03:47:00 PM 31.4994 124.8501 67° East  Level Estimated
Mon 03:48:00 PM 31.5454 124.9808 68° East  Level Estimated
Mon 03:49:00 PM 31.5912 125.1116 68° East  Level Estimated
Mon 03:50:00 PM 31.6369 125.2425 68° East  Level Estimated
Mon 03:51:00 PM 31.6825 125.3736 68° East  Level Estimated
Mon 03:52:00 PM 31.7280 125.5048 68° East  Level Estimated
Mon 03:53:00 PM 31.7733 125.6361 68° East  Level Estimated
Mon 03:54:00 PM 31.8185 125.7675 68° East  Level Estimated
Mon 03:55:00 PM 31.8635 125.8991 68° East  Level Estimated
Mon 03:56:00 PM 31.9084 126.0308 68° East  Level Estimated
Mon 03:57:00 PM 31.9532 126.1627 68° East  Level Estimated
Mon 03:58:00 PM 31.9978 126.2946 68° East  Level Estimated
Mon 03:59:00 PM 32.0423 126.4267 68° East  Level Estimated
Mon 04:00:00 PM 32.0867 126.5589 68° East  Level Estimated
Mon 04:01:00 PM 32.1309 126.6913 68° East  Level Estimated
Mon 04:02:00 PM 32.1750 126.8238 69° East  Level Estimated
Mon 04:03:00 PM 32.2189 126.9564 69° East  Level Estimated
Mon 04:04:00 PM 32.2628 127.0891 69° East  Level Estimated
Mon 04:05:00 PM 32.3064 127.2220 69° East  Level Estimated
Mon 04:06:00 PM 32.3500 127.3549 69° East  Level Estimated
Mon 04:07:00 PM 32.3933 127.4881 69° East  Level Estimated
Mon 04:08:00 PM 32.4366 127.6213 69° East  Level Estimated
Mon 04:09:00 PM 32.4797 127.7547 69° East  Level Estimated
Mon 04:10:00 PM 32.5227 127.8882 69° East  Level Estimated
Mon 04:11:00 PM 32.5655 128.0218 69° East  Level Estimated
Mon 04:12:00 PM 32.6082 128.1556 69° East  Level Estimated
Mon 04:12:30 PM 32.7340 129.1440 69° East 509 586 39,000  Level FlightAware ADS-B
Mon 04:13:13 PM 32.7570 129.2610 77° East 509 586 39,000  Level FlightAware ADS-B
Mon 04:13:53 PM 32.7790 129.3690 76° East 509 586 39,000  Level FlightAware ADS-B
Mon 04:14:28 PM 32.7980 129.4630 76° East 509 586 39,000  Level FlightAware ADS-B
Mon 04:15:03 PM 32.8170 129.5570 76° East 510 587 39,000  Level FlightAware ADS-B
Mon 04:15:33 PM 32.8330 129.6390 77° East 511 588 39,000  Level FlightAware ADS-B
Mon 04:16:13 PM 32.8520 129.7480 78° East 509 586 39,000  Level FlightAware ADS-B
Mon 04:16:48 PM 32.8670 129.8480 80° East 509 586 39,000  Level FlightAware ADS-B
Mon 04:17:23 PM 32.8800 129.9430 81° East 511 588 39,000  Level FlightAware ADS-B
Mon 04:17:58 PM 32.8950 130.0440 80° East 511 588 39,000  Level FlightAware ADS-B
Mon 04:18:29 PM 32.9060 130.1250 81° East 512 589 39,000  Level FlightAware ADS-B
Mon 04:19:03 PM 32.9200 130.2190 80° East 512 589 39,000  Level FlightAware ADS-B
Mon 04:19:43 PM 32.9360 130.3310 80° East 512 589 39,000  Level FlightAware ADS-B
Mon 04:20:23 PM 32.9510 130.4410 81° East 512 589 39,000  Level FlightAware ADS-B
Mon 04:20:58 PM 32.9650 130.5390 80° East 512 589 39,000  Level FlightAware ADS-B
Mon 04:21:33 PM 32.9780 130.6370 81° East 512 589 39,000  Level FlightAware ADS-B
Mon 04:22:09 PM 32.9920 130.7360 80° East 513 590 39,000  Level FlightAware ADS-B
Mon 04:22:48 PM 33.0070 130.8460 81° East 511 588 39,000  Level FlightAware ADS-B
Mon 04:23:23 PM 33.0200 130.9410 81° East 510 587 39,000  Level FlightAware ADS-B
Mon 04:23:53 PM 33.0310 131.0220 81° East 509 586 39,000  Level FlightAware ADS-B
Mon 04:24:29 PM 33.0450 131.1240 81° East 510 587 39,000  Level FlightAware ADS-B
Mon 04:25:04 PM 33.0580 131.2220 81° East 510 587 39,000  Level FlightAware ADS-B
Mon 04:25:45 PM 33.0730 131.3350 81° East 510 587 39,000  Level FlightAware ADS-B
Mon 04:26:19 PM 33.0860 131.4320 81° East 510 587 39,000  Level FlightAware ADS-B
Mon 04:26:59 PM 33.0990 131.5300 81° East 508 585 39,000  Level FlightAware ADS-B
Mon 04:27:34 PM 33.1130 131.6390 81° East 508 585 39,000  Level FlightAware ADS-B
Mon 04:28:14 PM 33.1270 131.7430 81° East 508 585 39,000  Level FlightAware ADS-B
Mon 04:28:50 PM 33.1390 131.8380 81° East 509 586 39,000  Level FlightAware ADS-B
Mon 04:29:25 PM 33.1530 131.9480 81° East 511 588 39,000  Level FlightAware ADS-B
Mon 04:30:01 PM 33.1650 132.0470 82° East 511 588 39,000  Level FlightAware ADS-B
Mon 04:30:35 PM 33.1780 132.1420 81° East 511 588 39,000  Level FlightAware ADS-B
Mon 04:31:12 PM 33.1900 132.2410 82° East 513 590 39,000  Level FlightAware ADS-B
Mon 04:31:41 PM 33.2000 132.3250 82° East 513 590 39,000  Level FlightAware ADS-B
Mon 04:32:20 PM 33.2140 132.4370 81° East 512 589 39,000  Level FlightAware ADS-B
Mon 04:32:55 PM 33.2260 132.5340 82° East 511 588 39,000  Level FlightAware ADS-B
Mon 04:33:31 PM 33.2380 132.6320 82° East 511 588 39,000  Level FlightAware ADS-B
Mon 04:34:00 PM 33.2480 132.7120 81° East 511 588 39,000  Level FlightAware ADS-B
Mon 04:34:37 PM 33.2610 132.8190 82° East 511 588 39,000  Level FlightAware ADS-B
Mon 04:35:15 PM 33.2730 132.9210 82° East 513 590 39,000  Level FlightAware ADS-B
Mon 04:35:56 PM 33.2870 133.0390 82° East 513 590 39,000  Level FlightAware ADS-B
Mon 04:36:32 PM 33.2970 133.1260 82° East 513 590 39,000  Level FlightAware ADS-B
Mon 04:37:06 PM 33.3100 133.2340 82° East 510 587 39,000  Level FlightAware ADS-B
Mon 04:37:48 PM 33.3230 133.3480 82° East 509 586 39,000  Level FlightAware ADS-B
Mon 04:38:23 PM 33.3340 133.4410 82° East 508 585 39,000  Level FlightAware ADS-B
Mon 04:39:14 PM 33.3500 133.5790 82° East 508 585 39,000  Level FlightAware ADS-B
Mon 04:39:54 PM 33.3630 133.7010 83° East 509 586 39,000  Level FlightAware ADS-B
Mon 04:40:29 PM 33.3740 133.7980 82° East 509 586 39,000  Level FlightAware ADS-B
Mon 04:41:04 PM 33.3850 133.8970 82° East 508 585 39,000  Level FlightAware ADS-B
Mon 04:41:39 PM 33.3960 133.9950 82° East 508 585 39,000  Level FlightAware ADS-B
Mon 04:42:15 PM 33.4070 134.0910 82° East 508 585 39,000  Level FlightAware ADS-B
Mon 04:42:49 PM 33.4180 134.1890 82° East 508 585 39,000  Level FlightAware ADS-B
Mon 04:43:29 PM 33.4300 134.3000 83° East 508 585 39,000  Level FlightAware ADS-B
Mon 04:44:04 PM 33.4400 134.3950 83° East 508 585 39,000  Level FlightAware ADS-B
Mon 04:44:39 PM 33.4500 134.4940 83° East 510 587 39,000  Level FlightAware ADS-B
Mon 04:45:16 PM 33.4600 134.5820 82° East 510 587 39,000  Level FlightAware ADS-B
Mon 04:45:50 PM 33.4710 134.6880 83° East 509 586 39,000  Level FlightAware ADS-B
Mon 04:46:26 PM 33.4820 134.7930 83° East 509 586 39,000  Level FlightAware ADS-B
Mon 04:47:01 PM 33.4920 134.8890 83° East 508 585 39,000  Level FlightAware ADS-B
Mon 04:47:41 PM 33.5020 134.9950 84° East 507 583 39,000  Level FlightAware ADS-B
Mon 04:48:17 PM 33.5120 135.0930 83° East 507 583 39,000  Level FlightAware ADS-B
Mon 04:48:52 PM 33.5230 135.1990 83° East 507 583 39,000  Level FlightAware ADS-B
Mon 04:49:27 PM 33.5330 135.2960 83° East 508 585 39,000  Level FlightAware ADS-B
Mon 04:50:02 PM 33.5420 135.3910 83° East 509 586 39,000  Level FlightAware ADS-B
Mon 04:50:37 PM 33.5520 135.4860 83° East 510 587 39,000  Level FlightAware ADS-B
Mon 04:51:12 PM 33.5620 135.5880 83° East 510 587 39,000  Level FlightAware ADS-B
Mon 04:51:47 PM 33.5710 135.6790 83° East 510 587 39,000  Level FlightAware ADS-B
Mon 04:52:22 PM 33.5800 135.7770 84° East 510 587 39,000  Level FlightAware ADS-B
Mon 04:52:57 PM 33.5900 135.8830 84° East 510 587 39,000  Level FlightAware ADS-B
Mon 04:53:32 PM 33.5990 135.9810 84° East 510 587 39,000  Level FlightAware ADS-B
Mon 04:54:12 PM 33.6100 136.0950 83° East 512 589 39,000  Level FlightAware ADS-B
Mon 04:54:52 PM 33.6200 136.2020 84° East 514 592 39,000  Level FlightAware ADS-B
Mon 04:55:25 PM 33.6290 136.2990 84° East 512 589 39,000  Level FlightAware ADS-B
Mon 04:56:00 PM 33.6380 136.4000 84° East 513 590 39,000  Level FlightAware ADS-B
Mon 04:56:35 PM 33.6470 136.4940 83° East 514 592 39,000  Level FlightAware ADS-B
Mon 04:57:10 PM 33.6560 136.5970 84° East 514 592 39,000  Level FlightAware ADS-B
Mon 04:57:45 PM 33.6650 136.6970 84° East 514 592 39,000  Level FlightAware ADS-B
Mon 04:58:20 PM 33.6730 136.7930 84° East 514 592 39,000  Level FlightAware ADS-B
Mon 04:58:55 PM 33.6820 136.8940 84° East 514 592 39,000  Level FlightAware ADS-B
Mon 04:59:30 PM 33.6910 136.9940 84° East 513 590 39,000  Level FlightAware ADS-B
Mon 05:00:05 PM 33.7000 137.0940 84° East 514 592 39,000  Level FlightAware ADS-B
Mon 05:00:40 PM 33.7140 137.1870 80° East 516 594 39,000  Level FlightAware ADS-B
Mon 05:01:15 PM 33.7350 137.2880 76° East 510 587 39,000  Level FlightAware ADS-B
Mon 05:01:55 PM 33.7710 137.3970 68° East 505 581 39,000  Level FlightAware ADS-B
Mon 05:02:25 PM 33.7980 137.4720 67° East 505 581 39,000  Level FlightAware ADS-B
Mon 05:03:00 PM 33.8310 137.5620 66° East 506 582 39,000  Level FlightAware ADS-B
Mon 05:03:35 PM 33.8630 137.6520 67° East 504 580 39,000  Level FlightAware ADS-B
Mon 05:04:09 PM 33.8950 137.7420 67° East 505 581 39,000  Level FlightAware ADS-B
Mon 05:04:45 PM 33.9290 137.8370 67° East 505 581 39,000  Level FlightAware ADS-B
Mon 05:05:20 PM 33.9600 137.9240 67° East 506 582 39,000  Level FlightAware ADS-B
Mon 05:06:00 PM 33.9980 138.0280 66° East 507 583 39,000  Level FlightAware ADS-B
Mon 05:06:30 PM 34.0260 138.1070 67° East 506 582 39,000  Level FlightAware ADS-B
Mon 05:07:05 PM 34.0580 138.2000 67° East 508 585 39,000 -160 Level FlightAware ADS-B
Mon 05:07:45 PM 34.0950 138.3040 67° East 508 585 38,800 -686 Descending FlightAware ADS-B
Mon 05:08:15 PM 34.1230 138.3840 67° East 506 582 38,200 -1,200 Descending FlightAware ADS-B
Mon 05:08:50 PM 34.1550 138.4740 67° East 506 582 37,500 -1,029 Descending FlightAware ADS-B
Mon 05:09:25 PM 34.1870 138.5650 67° East 502 578 37,000 -800 Descending FlightAware ADS-B
Mon 05:10:05 PM 34.2230 138.6680 67° East 494 568 36,500 -771 Descending FlightAware ADS-B
Mon 05:10:35 PM 34.2480 138.7400 67° East 489 563 36,100 -1,100 Descending FlightAware ADS-B
Mon 05:11:05 PM 34.2760 138.8190 67° East 490 564 35,400 -1,350 Descending FlightAware ADS-B
Mon 05:11:55 PM 34.3180 138.9420 68° East 486 559 34,300 -1,412 Descending FlightAware ADS-B
Mon 05:12:30 PM 34.3490 139.0330 68° East 488 562 33,400 -1,457 Descending FlightAware ADS-B
Mon 05:13:05 PM 34.3780 139.1170 67° East 489 563 32,600 -1,478 Descending FlightAware ADS-B
Mon 05:13:39 PM 34.4090 139.2060 67° East 490 564 31,700 -1,588 Descending FlightAware ADS-B
Mon 05:14:13 PM 34.4380 139.2920 68° East 490 564 30,800 -1,886 Descending FlightAware ADS-B
Mon 05:14:49 PM 34.4700 139.3850 67° East 489 563 29,500 -2,143 Descending FlightAware ADS-B
Mon 05:15:23 PM 34.5000 139.4710 67° East 478 550 28,300 -2,057 Descending FlightAware ADS-B
Mon 05:15:59 PM 34.5290 139.5590 68° East 460 529 27,100 -1,971 Descending FlightAware ADS-B
Mon 05:16:33 PM 34.5560 139.6380 67° East 444 511 26,000 -2,750 Descending FlightAware ADS-B
Mon 05:17:11 PM 34.5840 139.7210 68° East 456 525 23,800 -3,086 Descending FlightAware ADS-B
Mon 05:17:43 PM 34.6110 139.8030 68° East 447 514 22,400 -2,559 Descending FlightAware ADS-B
Mon 05:18:19 PM 34.6390 139.8850 67° East 443 510 20,900 -2,366 Descending FlightAware ADS-B
Mon 05:18:54 PM 34.6660 139.9660 68° East 433 498 19,600 -2,197 Descending FlightAware ADS-B
Mon 05:19:30 PM 34.6920 140.0440 68° East 416 479 18,300 -2,143 Descending FlightAware ADS-B
Mon 05:20:04 PM 34.7170 140.1180 68° East 403 464 17,100 -2,320 Descending FlightAware ADS-B
Mon 05:20:45 PM 34.7460 140.2030 67° East 402 463 15,400 -2,459 Descending FlightAware ADS-B
Mon 05:21:05 PM 34.7670 140.2410 56° Northeast 392 451 14,600 -2,308 Descending FlightAware ADS-B
Mon 05:21:24 PM 34.7920 140.2700 44° Northeast 393 452 13,900 -2,200 Descending FlightAware ADS-B
Mon 05:22:05 PM 34.8500 140.3120 31° Northeast 386 444 12,400 -2,080 Descending FlightAware ADS-B
Mon 05:22:39 PM 34.9120 140.3390 20° North 374 430 11,300 -1,200 Descending FlightAware ADS-B
Mon 05:23:15 PM 34.9670 140.3620 19° North 340 391 11,000 -514 Descending FlightAware ADS-B
Mon 05:23:49 PM 35.0170 140.3830 19° North 308 354 10,700 -514 Descending FlightAware ADS-B
Mon 05:24:25 PM 35.0660 140.4040 19° North 293 337 10,400 -429 Descending FlightAware ADS-B
Mon 05:24:59 PM 35.1090 140.4220 19° North 273 314 10,200 -462 Descending FlightAware ADS-B
Mon 05:25:30 PM 35.1450 140.4370 19° North 271 312 9,900 -706 Descending FlightAware ADS-B
Mon 05:25:50 PM 35.1700 140.4480 20° North 272 313 9,600 -923 Descending FlightAware ADS-B
Mon 05:26:09 PM 35.1940 140.4580 19° North 274 315 9,300 -1,050 Descending FlightAware ADS-B
Mon 05:26:30 PM 35.2180 140.4680 19° North 272 313 8,900 -1,000 Descending FlightAware ADS-B
Mon 05:26:45 PM 35.2370 140.4760 19° North 272 313 8,700 -1,029 Descending FlightAware ADS-B
Mon 05:27:05 PM 35.2620 140.4870 20° North 270 311 8,300 -1,235 Descending FlightAware ADS-B
Mon 05:27:19 PM 35.2790 140.4940 19° North 272 313 8,000 -1,029 Descending FlightAware ADS-B
Mon 05:27:40 PM 35.3050 140.5050 19° North 271 312 7,700 -1,024 Descending FlightAware ADS-B
Mon 05:28:00 PM 35.3280 140.5150 20° North 276 318 7,300 -1,200 Descending FlightAware ADS-B
Mon 05:28:20 PM 35.3500 140.5240 18° North 269 310 6,900 -1,077 Descending FlightAware ADS-B
Mon 05:28:39 PM 35.3760 140.5350 19° North 272 313 6,600 -1,043 Descending FlightAware ADS-B
Mon 05:29:06 PM 35.4090 140.5490 19° North 269 310 6,100 -1,149 Descending FlightAware ADS-B
Mon 05:29:26 PM 35.4320 140.5590 20° North 267 307 5,700 -1,167 Descending FlightAware ADS-B
Mon 05:29:42 PM 35.4510 140.5670 19° North 266 306 5,400 -1,000 Descending FlightAware ADS-B
Mon 05:30:02 PM 35.4740 140.5770 19° North 263 303 5,100 -750 Descending FlightAware ADS-B
Mon 05:30:22 PM 35.4980 140.5860 17° North 264 304 4,900 -429 Descending FlightAware ADS-B
Mon 05:30:30 PM 35.5080 140.5870 North 269 310 4,900  Level FlightAware ADS-B
Mon 05:30:50 PM 35.5300 140.5780 342° North 268 308 4,900 -615 Level FlightAware ADS-B
Mon 05:31:09 PM 35.5510 140.5620 328° Northwest 265 305 4,500 -1,412 Descending FlightAware ADS-B
Mon 05:31:24 PM 35.5670 140.5500 329° Northwest 260 299 4,100 -1,400 Descending FlightAware ADS-B
Mon 05:31:39 PM 35.5830 140.5390 331° Northwest 242 278 3,800 -1,167 Descending FlightAware ADS-B
Mon 05:32:00 PM 35.6020 140.5250 329° Northwest 226 260 3,400 -1,171 Descending FlightAware ADS-B
Mon 05:32:20 PM 35.6210 140.5110 329° Northwest 228 262 3,000 -769 Descending FlightAware ADS-B
Mon 05:32:39 PM 35.6370 140.5000 331° Northwest 226 260 2,900 -150 Descending FlightAware ADS-B
Mon 05:33:00 PM 35.6560 140.4860 329° Northwest 210 242 2,900 -439 Level FlightAware ADS-B
Mon 05:33:20 PM 35.6720 140.4740 329° Northwest 206 237 2,600 -955 Descending FlightAware ADS-B
Mon 05:33:44 PM 35.6900 140.4610 330° Northwest 191 220 2,200 -1,143 Descending FlightAware ADS-B
Mon 05:34:02 PM 35.7050 140.4510 332° Northwest 168 193 1,800 -857 Descending FlightAware ADS-B
Mon 05:34:26 PM 35.7200 140.4400 329° Northwest 143 165 1,600 -615 Descending FlightAware ADS-B
Mon 05:34:41 PM 35.7280 140.4340 329° Northwest 138 159 1,400 -811 Descending FlightAware ADS-B
Mon 05:35:03 PM 35.7390 140.4260 329° Northwest 132 152 1,100 -800 Descending FlightAware ADS-B
Mon 05:35:26 PM 35.7520 140.4170 331° Northwest 128 147 800 -638 Descending FlightAware ADS-B
Mon 05:35:50 PM 35.7640 140.4080 329° Northwest 130 150 600 -682 Descending FlightAware ADS-B
Mon 05:36:10 PM 35.7740 140.4010 330° Northwest 131 151 300 -469 Descending FlightAware ADS-B
Mon 05:36:54 PM 35.7960 140.3850 329° Northwest 130 150 100 -273 Descending FlightAware ADS-B

Login

Don't have an account? Register now (free) for customized features, flight alerts, and more!